TimeEDT,TemperatureF,Dew PointF,Humidity,Sea Level PressureIn,VisibilityMPH,Wind Direction,Wind SpeedMPH,Gust SpeedMPH,PrecipitationIn,Events,Conditions,WindDirDegrees,DateUTC
12:58 AM,58.3,56.7,94,30.19,10.0,NNE,3.5,-,N/A,,Clear,30,2013-10-15 04:58:00
1:58 AM,57.4,55.9,95,30.19,10.0,NNE,4.6,-,N/A,,Clear,30,2013-10-15 05:58:00
2:46 AM,57.2,55.4,94,30.16,10.0,NNE,5.8,-,N/A,,Partly Cloudy,30,2013-10-15 06:46:00
2:58 AM,56.1,54.9,96,30.16,10.0,NNE,4.6,-,N/A,,Partly Cloudy,30,2013-10-15 06:58:00
3:38 AM,55.4,55.4,100,30.15,10.0,NE,3.5,-,N/A,,Mostly Cloudy,50,2013-10-15 07:38:00
3:58 AM,55.9,54.9,96,30.15,10.0,NNE,4.6,-,N/A,,Overcast,30,2013-10-15 07:58:00
4:13 AM,57.2,55.4,94,30.15,10.0,NNE,5.8,-,N/A,,Overcast,30,2013-10-15 08:13:00
4:58 AM,57.6,56.1,95,30.16,10.0,NE,6.9,-,N/A,,Overcast,40,2013-10-15 08:58:00
5:08 AM,57.2,55.4,94,30.15,10.0,NE,5.8,-,N/A,,Overcast,50,2013-10-15 09:08:00
5:33 AM,57.2,55.4,94,30.14,10.0,NE,8.1,-,N/A,,Mostly Cloudy,40,2013-10-15 09:33:00
5:43 AM,57.2,55.4,94,30.14,10.0,NNE,6.9,-,N/A,,Scattered Clouds,30,2013-10-15 09:43:00
5:58 AM,56.5,55.0,95,30.15,10.0,NNE,6.9,-,N/A,,Partly Cloudy,30,2013-10-15 09:58:00
6:58 AM,55.9,54.3,94,30.16,10.0,NNE,4.6,-,N/A,,Clear,20,2013-10-15 10:58:00
7:58 AM,55.9,54.1,94,30.16,10.0,NE,5.8,-,N/A,,Clear,40,2013-10-15 11:58:00
8:58 AM,56.8,54.5,92,30.17,10.0,NNE,8.1,-,N/A,,Clear,30,2013-10-15 12:58:00
9:58 AM,62.1,55.8,80,30.17,10.0,NE,8.1,-,N/A,,Partly Cloudy,50,2013-10-15 13:58:00
10:58 AM,65.8,55.6,69,30.16,10.0,NE,10.4,-,N/A,,Clear,50,2013-10-15 14:58:00
11:58 AM,69.4,56.5,63,30.15,10.0,Variable,5.8,-,N/A,,Scattered Clouds,0,2013-10-15 15:58:00
12:18 PM,71.6,57.2,60,30.13,10.0,Variable,6.9,-,N/A,,Mostly Cloudy,0,2013-10-15 16:18:00
12:43 PM,69.8,57.2,64,30.11,10.0,NE,10.4,-,N/A,,Scattered Clouds,40,2013-10-15 16:43:00
12:58 PM,71.1,58.1,63,30.12,10.0,NNE,9.2,-,N/A,,Scattered Clouds,20,2013-10-15 16:58:00
1:08 PM,71.6,59.0,64,30.09,10.0,NE,10.4,-,N/A,,Mostly Cloudy,40,2013-10-15 17:08:00
1:58 PM,72.7,59.0,62,30.08,10.0,NNE,10.4,-,N/A,,Mostly Cloudy,20,2013-10-15 17:58:00
2:13 PM,73.4,59.0,61,30.08,10.0,ENE,9.2,-,N/A,,Scattered Clouds,70,2013-10-15 18:13:00
2:18 PM,73.4,59.0,61,30.08,10.0,NE,9.2,-,N/A,,Mostly Cloudy,50,2013-10-15 18:18:00
2:38 PM,73.4,59.0,61,30.07,10.0,ENE,9.2,-,N/A,,Mostly Cloudy,60,2013-10-15 18:38:00
2:43 PM,73.4,59.0,61,30.07,10.0,NE,11.5,-,N/A,,Mostly Cloudy,50,2013-10-15 18:43:00
2:48 PM,73.4,59.0,61,30.07,10.0,NE,11.5,-,N/A,,Mostly Cloudy,50,2013-10-15 18:48:00
2:58 PM,73.6,59.5,61,30.08,10.0,ENE,10.4,-,N/A,,Mostly Cloudy,60,2013-10-15 18:58:00
3:18 PM,71.6,59.0,64,30.06,10.0,East,9.2,-,N/A,,Overcast,80,2013-10-15 19:18:00
3:23 PM,71.6,59.0,64,30.06,10.0,ENE,9.2,-,N/A,,Overcast,70,2013-10-15 19:23:00
3:58 PM,72.1,59.9,65,30.06,10.0,NE,10.4,-,N/A,,Overcast,40,2013-10-15 19:58:00
4:13 PM,71.6,60.8,69,30.05,10.0,NE,11.5,-,N/A,,Overcast,50,2013-10-15 20:13:00
4:58 PM,71.1,60.4,69,30.06,10.0,NNE,5.8,-,N/A,,Overcast,20,2013-10-15 20:58:00
5:18 PM,69.8,60.8,73,30.06,10.0,North,5.8,-,N/A,,Overcast,360,2013-10-15 21:18:00
5:43 PM,69.8,60.8,73,30.06,10.0,NE,6.9,-,N/A,,Overcast,40,2013-10-15 21:43:00
5:58 PM,70.0,61.0,73,30.07,10.0,NNE,6.9,-,N/A,,Overcast,30,2013-10-15 21:58:00
6:58 PM,68.2,62.2,81,30.07,10.0,NE,5.8,-,N/A,,Overcast,40,2013-10-15 22:58:00
7:18 PM,68.0,60.8,78,30.06,10.0,NNE,4.6,-,N/A,,Overcast,30,2013-10-15 23:18:00
7:23 PM,68.0,60.8,78,30.07,10.0,NNE,4.6,-,N/A,,Overcast,20,2013-10-15 23:23:00
7:58 PM,67.6,61.5,81,30.08,10.0,NE,6.9,-,N/A,,Overcast,40,2013-10-15 23:58:00
8:58 PM,66.7,62.1,85,30.08,10.0,NE,8.1,-,N/A,,Overcast,50,2013-10-16 00:58:00
9:08 PM,66.2,60.8,83,30.07,10.0,ENE,11.5,-,N/A,,Overcast,60,2013-10-16 01:08:00
9:58 PM,66.6,61.7,84,30.09,10.0,NNE,4.6,-,N/A,,Overcast,30,2013-10-16 01:58:00
10:58 PM,66.0,61.9,86,30.08,10.0,NE,4.6,-,N/A,,Overcast,50,2013-10-16 02:58:00
11:03 PM,66.2,62.6,88,30.07,10.0,NE,3.5,-,N/A,,Overcast,40,2013-10-16 03:03:00
11:58 PM,65.3,61.7,88,30.06,10.0,ENE,4.6,-,N/A,,Overcast,60,2013-10-16 03:58:00